Time;durP1;ratioP1;P1;durP2;ratioP2;P2;SDS_P1;SDS_P2;PMS_P1;PMS_P2;Temp;Humidity;BMP_temperature;BMP_pressure;BME280_temperature;BME280_humidity;BME280_pressure;Samples;Min_cycle;Max_cycle;Signal;HPM_P1;HPM_P2
2021/10/27 00:01:47;;;;;;;11.00;8.53;;;7.40;99.90;;;8.33;96.86;98889.34;5192093;28;20308;-63
2021/10/27 00:04:21;;;;;;;12.63;7.13;;;7.40;99.90;;;8.26;96.67;98889.59;5197472;28;20226;-62
2021/10/27 00:06:54;;;;;;;10.20;7.90;;;7.30;99.90;;;8.14;97.40;98889.47;5201904;28;20292;-60
2021/10/27 00:09:28;;;;;;;8.77;7.97;;;7.30;99.90;;;8.15;97.00;98886.16;5206005;28;20216;-61
2021/10/27 00:12:02;;;;;;;11.03;8.90;;;7.20;99.90;;;8.07;96.73;98883.00;5202497;28;20231;-61
2021/10/27 00:14:35;;;;;;;8.07;7.37;;;7.20;99.90;;;8.07;96.93;98883.00;5202770;28;20209;-63
2021/10/27 00:17:08;;;;;;;8.90;8.00;;;7.20;99.90;;;8.09;96.95;98885.66;5206853;28;20208;-62
2021/10/27 00:19:41;;;;;;;9.77;8.20;;;7.20;99.90;;;8.09;97.45;98886.53;5202397;28;20296;-61
2021/10/27 00:22:14;;;;;;;8.53;7.70;;;7.20;99.90;;;8.04;98.03;98877.66;5205915;28;20285;-62
2021/10/27 00:24:49;;;;;;;8.20;7.43;;;7.20;99.90;;;7.94;97.13;98874.19;5201888;28;20558;-62
2021/10/27 00:27:22;;;;;;;8.57;7.67;;;7.10;99.90;;;7.89;97.57;98877.22;5204902;28;20221;-62
2021/10/27 00:30:00;;;;;;;8.50;7.73;;;7.10;99.90;;;7.93;97.41;98867.34;5207158;28;20677;-62
2021/10/27 00:32:33;;;;;;;9.20;8.30;;;7.10;99.90;;;7.87;97.42;98872.81;5199160;28;20502;-62
2021/10/27 00:35:07;;;;;;;8.43;7.67;;;7.10;99.90;;;7.83;97.27;98871.63;5201885;28;20633;-63
2021/10/27 00:37:41;;;;;;;10.10;8.60;;;7.00;99.90;;;7.81;97.14;98870.63;5205756;28;20329;-60
2021/10/27 00:40:15;;;;;;;9.47;8.57;;;7.00;99.90;;;7.85;97.36;98874.31;5210177;28;20291;-60
2021/10/27 00:42:48;;;;;;;11.07;7.97;;;7.00;99.90;;;7.86;96.86;98878.63;5207552;28;20205;-60
2021/10/27 00:45:23;;;;;;;8.87;8.17;;;7.00;99.90;;;7.86;97.20;98876.97;5212342;28;20208;-60
2021/10/27 00:47:56;;;;;;;9.20;8.27;;;7.00;99.90;;;7.91;97.17;98872.28;5199161;28;20313;-61
2021/10/27 00:50:29;;;;;;;9.20;8.40;;;7.00;99.90;;;7.96;96.68;98883.75;5204787;28;20215;-63
2021/10/27 00:53:02;;;;;;;11.53;8.90;;;7.10;99.90;;;7.87;96.63;98877.91;5209057;28;20224;-62
2021/10/27 00:55:37;;;;;;;9.73;8.83;;;7.00;99.90;;;7.73;96.91;98873.31;5203850;28;20585;-62
2021/10/27 00:58:10;;;;;;;8.30;7.60;;;6.90;99.90;;;7.68;96.99;98870.34;5201741;28;20719;-61
2021/10/27 01:00:43;;;;;;;8.43;7.73;;;6.80;99.90;;;7.61;97.00;98875.66;5198125;28;20216;-62
2021/10/27 01:03:16;;;;;;;9.40;8.60;;;6.80;99.90;;;7.63;97.39;98875.03;5201382;28;20194;-63
2021/10/27 01:05:50;;;;;;;9.20;8.40;;;6.80;99.90;;;7.58;97.54;98875.41;5211712;28;20284;-61
2021/10/27 01:08:23;;;;;;;8.63;7.83;;;6.80;99.90;;;7.57;97.44;98876.19;5204396;28;20776;-62
2021/10/27 01:10:57;;;;;;;9.80;8.90;;;6.80;99.90;;;7.57;97.97;98876.19;5196409;28;20599;-63
2021/10/27 01:13:31;;;;;;;9.13;8.33;;;6.80;99.90;;;7.59;97.95;98875.56;5195107;28;20323;-62
2021/10/27 01:16:05;;;;;;;8.90;8.20;;;6.70;99.90;;;7.59;97.76;98870.47;5199622;28;20205;-62
2021/10/27 01:18:38;;;;;;;10.60;8.63;;;6.80;99.90;;;7.62;97.62;98874.94;5206372;28;20230;-62
2021/10/27 01:21:13;;;;;;;9.47;8.57;;;6.80;99.90;;;7.59;97.49;98869.59;5211878;28;20348;-61
2021/10/27 01:23:46;;;;;;;7.90;7.20;;;6.70;99.90;;;7.60;96.68;98874.78;5205341;28;20640;-61
2021/10/27 01:26:20;;;;;;;8.07;7.47;;;6.70;99.90;;;7.63;96.91;98872.50;5206447;28;20194;-61
2021/10/27 01:28:53;;;;;;;8.37;7.67;;;6.70;99.90;;;7.62;96.68;98874.94;5207366;28;20216;-62
2021/10/27 01:31:26;;;;;;;7.83;7.13;;;6.70;99.90;;;7.56;96.52;98867.66;5205275;28;20558;-62
2021/10/27 01:34:00;;;;;;;7.77;7.17;;;6.70;99.90;;;7.58;97.06;98866.16;5206655;28;20225;-62
2021/10/27 01:36:34;;;;;;;8.17;7.57;;;6.70;99.90;;;7.57;96.47;98869.44;5210867;28;20574;-60
2021/10/27 01:39:09;;;;;;;25.80;8.73;;;6.70;99.90;;;7.54;96.30;98861.56;5203747;28;20220;-62
2021/10/27 01:41:42;;;;;;;8.40;7.60;;;6.60;99.90;;;7.45;96.23;98863.31;5202836;28;20237;-61
2021/10/27 01:44:15;;;;;;;15.03;9.60;;;6.50;99.90;;;7.40;96.41;98862.03;5204380;28;20196;-62
2021/10/27 01:46:48;;;;;;;9.83;8.37;;;6.50;99.90;;;7.35;95.98;98858.19;5200028;28;20562;-61
2021/10/27 01:49:21;;;;;;;8.90;7.73;;;6.40;99.90;;;7.32;96.29;98868.09;5206130;28;20739;-62
2021/10/27 01:51:58;;;;;;;13.93;7.87;;;6.40;99.90;;;7.21;96.08;98854.47;5200312;28;20317;-63
2021/10/27 01:54:31;;;;;;;13.17;8.80;;;6.30;99.90;;;7.17;96.78;98858.41;5201635;28;20225;-63
2021/10/27 01:57:06;;;;;;;9.60;8.70;;;6.30;99.90;;;7.21;96.68;98859.53;5207891;28;21080;-62
2021/10/27 01:59:39;;;;;;;8.90;8.20;;;6.40;99.90;;;7.26;96.66;98859.97;5212447;28;20235;-62
2021/10/27 02:02:13;;;;;;;9.40;8.60;;;6.40;99.90;;;7.31;96.58;98866.34;5202265;28;20293;-63
2021/10/27 02:04:46;;;;;;;9.23;8.37;;;6.40;99.90;;;7.32;96.30;98868.09;5200483;28;20202;-62
2021/10/27 02:07:20;;;;;;;9.97;8.90;;;6.40;99.90;;;7.23;96.60;98864.00;5201034;28;20218;-63
2021/10/27 02:09:53;;;;;;;9.47;8.00;;;6.40;99.90;;;7.16;96.59;98871.88;5201376;28;20196;-60
2021/10/27 02:12:27;;;;;;;41.40;10.50;;;6.30;99.90;;;7.16;96.54;98868.47;5207466;28;20205;-63
2021/10/27 02:15:01;;;;;;;9.37;8.50;;;6.30;99.90;;;7.06;96.88;98868.41;5204593;28;20213;-63
2021/10/27 02:17:34;;;;;;;9.13;8.30;;;6.20;99.90;;;7.02;97.09;98859.63;5207685;28;20229;-63
2021/10/27 02:20:09;;;;;;;10.47;8.90;;;6.10;99.90;;;6.99;97.03;98864.44;5199603;28;20191;-62
2021/10/27 02:22:43;;;;;;;37.70;9.33;;;6.20;99.90;;;6.98;96.88;98866.09;5207175;28;20212;-62
2021/10/27 02:25:16;;;;;;;8.63;7.93;;;6.10;99.90;;;7.08;97.54;98862.69;5201912;28;20669;-64
2021/10/27 02:27:49;;;;;;;8.57;7.77;;;6.20;99.90;;;7.10;97.08;98861.19;5208881;28;20226;-63
2021/10/27 02:30:24;;;;;;;8.90;8.10;;;6.20;99.90;;;7.12;97.38;98869.81;5208528;28;20209;-62
2021/10/27 02:32:57;;;;;;;9.27;8.47;;;6.30;99.90;;;7.11;96.70;98862.97;5201703;28;20209;-61
2021/10/27 02:35:31;;;;;;;8.83;8.03;;;6.30;99.90;;;7.09;96.86;98869.56;5203652;28;20493;-63
2021/10/27 02:38:05;;;;;;;9.67;8.77;;;6.20;99.90;;;7.07;97.01;98870.19;5208177;28;20249;-62
2021/10/27 02:40:38;;;;;;;24.03;9.57;;;6.20;99.90;;;7.03;97.15;98876.66;5199336;28;20291;-62
2021/10/27 02:43:11;;;;;;;8.70;7.80;;;6.20;99.90;;;7.00;96.98;98878.94;5206638;28;20204;-61
2021/10/27 02:45:45;;;;;;;9.37;8.47;;;6.20;99.90;;;7.06;96.38;98878.56;5206642;28;20193;-61
2021/10/27 02:48:19;;;;;;;9.23;8.53;;;6.20;99.90;;;7.02;97.06;98887.59;5206415;28;20244;-62
2021/10/27 02:50:52;;;;;;;8.33;7.73;;;6.20;99.90;;;7.00;96.43;98895.06;5201901;28;20290;-61
2021/10/27 02:53:26;;;;;;;7.80;7.20;;;6.10;99.90;;;6.95;95.97;98892.88;5213722;28;20256;-61
2021/10/27 02:55:59;;;;;;;8.33;7.63;;;6.00;99.90;;;6.93;96.08;98891.88;5199413;28;20606;-62
2021/10/27 02:58:32;;;;;;;9.37;8.37;;;6.10;99.90;;;7.02;95.70;98886.72;5201949;28;20230;-62
2021/10/27 03:01:05;;;;;;;8.23;7.43;;;6.10;99.90;;;7.02;95.49;98891.78;5201458;28;20272;-62
2021/10/27 03:03:39;;;;;;;11.10;8.50;;;6.10;99.90;;;6.89;96.30;98892.34;5201197;28;20328;-63
2021/10/27 03:06:12;;;;;;;18.47;9.50;;;6.00;99.90;;;6.74;95.76;98886.81;5203455;28;20289;-62
2021/10/27 03:08:47;;;;;;;14.87;8.87;;;5.90;99.90;;;6.71;96.66;98886.53;5201923;28;20320;-62
2021/10/27 03:11:20;;;;;;;8.80;8.00;;;5.90;99.90;;;6.74;96.00;98894.44;5204346;28;20224;-61
2021/10/27 03:13:53;;;;;;;8.87;8.17;;;5.80;99.90;;;6.72;97.00;98896.84;5201759;28;20779;-65
2021/10/27 03:16:26;;;;;;;8.70;8.00;;;5.90;99.90;;;6.70;96.06;98889.84;5200832;28;20244;-61
2021/10/27 03:18:59;;;;;;;9.80;9.00;;;5.90;99.90;;;6.77;95.99;98885.41;5201786;28;20245;-66
2021/10/27 03:21:32;;;;;;;10.07;9.17;;;5.90;99.90;;;6.80;96.51;98879.72;5204818;28;20194;-61
2021/10/27 03:24:08;;;;;;;9.40;8.37;;;6.00;99.90;;;6.68;96.22;98889.69;5203242;28;20565;-60
2021/10/27 03:26:41;;;;;;;11.33;10.13;;;5.90;99.90;;;6.69;96.72;98886.38;5211822;28;20553;-61
2021/10/27 03:29:14;;;;;;;10.83;9.93;;;5.90;99.90;;;6.66;95.99;98886.13;5211885;28;20217;-61
2021/10/27 03:31:47;;;;;;;10.00;9.20;;;5.80;99.90;;;6.65;96.36;98894.50;5205332;28;20198;-59
2021/10/27 03:34:20;;;;;;;10.07;9.27;;;5.80;99.90;;;6.62;96.84;98894.25;5207100;28;20248;-62
2021/10/27 03:36:53;;;;;;;9.73;8.93;;;5.80;99.90;;;6.55;96.02;98891.91;5203440;28;20198;-60
2021/10/27 03:39:27;;;;;;;10.17;9.37;;;5.70;99.90;;;6.61;96.62;98897.56;5206642;28;20309;-61
2021/10/27 03:42:00;;;;;;;11.77;10.67;;;5.90;99.90;;;6.65;97.36;98894.50;5214032;28;20197;-61
2021/10/27 03:44:34;;;;;;;10.17;9.37;;;5.90;99.90;;;6.67;96.09;98887.03;5207514;28;20642;-64
2021/10/27 03:47:07;;;;;;;11.40;10.37;;;5.90;99.90;;;6.66;96.05;98886.13;5205961;28;20202;-62
2021/10/27 03:49:40;;;;;;;11.17;10.03;;;5.80;99.90;;;6.65;95.79;98888.53;5209988;28;20217;-60
2021/10/27 03:52:13;;;;;;;25.70;10.63;;;5.90;99.90;;;6.60;95.50;98893.19;5202492;28;20214;-63
2021/10/27 03:54:47;;;;;;;11.53;10.43;;;5.80;99.90;;;6.61;95.98;98892.47;5204217;28;20218;-59
2021/10/27 03:57:20;;;;;;;18.77;10.57;;;5.80;99.90;;;6.51;95.64;98905.97;5200599;28;20227;-59
2021/10/27 03:59:53;;;;;;;9.87;9.07;;;5.70;99.90;;;6.47;95.62;98906.47;5193846;28;20206;-63
2021/10/27 04:02:27;;;;;;;11.77;10.73;;;5.60;99.90;;;6.45;96.14;98896.94;5198496;28;20198;-61
2021/10/27 04:05:01;;;;;;;12.60;11.30;;;5.70;99.90;;;6.44;97.03;98907.81;5201942;28;20653;-63
2021/10/27 04:07:37;;;;;;;12.83;11.63;;;5.70;99.90;;;6.37;97.98;98902.97;5205987;28;20782;-62
2021/10/27 04:10:14;;;;;;;11.03;10.03;;;5.70;99.90;;;6.42;98.27;98905.16;5200858;28;20661;-60
2021/10/27 04:12:47;;;;;;;12.67;11.50;;;5.80;99.90;;;6.44;98.12;98905.28;5200064;28;20280;-62
2021/10/27 04:15:20;;;;;;;11.70;10.70;;;5.70;99.90;;;6.48;97.01;98904.81;5197981;28;20603;-61
2021/10/27 04:17:53;;;;;;;16.83;10.83;;;5.70;99.90;;;6.45;97.22;98909.63;5205902;28;20221;-60
2021/10/27 04:20:26;;;;;;;10.60;9.63;;;5.70;99.90;;;6.44;97.58;98915.44;5203617;28;20233;-62
2021/10/27 04:22:59;;;;;;;10.53;9.63;;;5.70;99.90;;;6.41;97.47;98907.53;5198203;28;20656;-61
2021/10/27 04:25:34;;;;;;;10.57;9.70;;;5.70;99.90;;;6.49;97.03;98910.00;5206049;28;20686;-59
2021/10/27 04:28:07;;;;;;;12.47;11.10;;;5.70;99.90;;;6.48;97.36;98915.88;5203511;28;20260;-63
2021/10/27 04:30:40;;;;;;;14.63;10.83;;;5.70;99.90;;;6.45;97.75;98913.03;5199085;28;20208;-61
2021/10/27 04:33:17;;;;;;;16.93;9.80;;;5.70;99.90;;;6.43;97.90;98916.19;5203241;28;20937;-61
2021/10/27 04:35:52;;;;;;;10.60;9.63;;;5.70;99.90;;;6.43;97.23;98911.13;5201857;28;20225;-63
2021/10/27 04:38:25;;;;;;;16.67;9.83;;;5.70;99.90;;;6.46;97.57;98908.84;5195903;28;20304;-63
2021/10/27 04:41:00;;;;;;;14.00;11.57;;;5.70;99.90;;;6.43;97.45;98906.94;5203614;28;20205;-65
2021/10/27 04:43:33;;;;;;;11.03;10.13;;;5.70;99.90;;;6.43;98.40;98916.19;5214954;28;20292;-57
2021/10/27 04:46:06;;;;;;;11.80;10.70;;;5.70;99.90;;;6.38;97.71;98904.72;5202033;28;20208;-65
2021/10/27 04:48:39;;;;;;;18.17;12.60;;;5.60;99.90;;;6.42;98.41;98910.25;5210214;28;20264;-60
2021/10/27 04:51:13;;;;;;;16.47;11.27;;;5.70;99.90;;;6.39;98.28;98906.53;5219147;28;20292;-59
2021/10/27 04:53:46;;;;;;;12.93;11.40;;;5.60;99.90;;;6.37;98.25;98902.97;5210053;28;20198;-60
2021/10/27 04:56:20;;;;;;;15.80;11.37;;;5.70;99.90;;;6.37;98.71;98905.50;5201683;28;20233;-63
2021/10/27 04:58:53;;;;;;;13.10;11.57;;;5.60;99.90;;;6.36;98.05;98911.34;5215209;28;20220;-64
2021/10/27 05:01:26;;;;;;;12.83;11.53;;;5.60;99.90;;;6.41;98.93;98907.53;5199241;28;20216;-61
2021/10/27 05:04:00;;;;;;;12.80;11.60;;;5.70;99.90;;;6.44;99.34;98908.75;5201430;28;20240;-61
2021/10/27 05:06:34;;;;;;;13.10;11.80;;;5.70;99.90;;;6.43;98.73;98908.59;5199560;28;20581;-57
2021/10/27 05:09:07;;;;;;;14.83;12.37;;;5.60;99.90;;;6.45;98.78;98907.97;5199685;28;20225;-68
2021/10/27 05:11:41;;;;;;;13.30;12.17;;;5.70;99.90;;;6.57;98.44;98900.56;5205549;28;20206;-62
2021/10/27 05:14:14;;;;;;;12.50;11.37;;;5.80;99.90;;;6.58;98.72;98897.28;5207951;28;20197;-62
2021/10/27 05:16:47;;;;;;;12.77;11.60;;;5.80;99.90;;;6.58;98.87;98907.44;5209179;28;20205;-62
2021/10/27 05:19:20;;;;;;;18.83;13.83;;;5.80;99.90;;;6.49;98.68;98902.41;5208494;28;20226;-64
2021/10/27 05:21:53;;;;;;;13.17;11.87;;;5.80;99.90;;;6.55;98.84;98896.97;5209452;28;20300;-56
2021/10/27 05:24:26;;;;;;;14.77;13.33;;;5.80;99.90;;;6.63;98.13;98901.09;5201323;28;20202;-60
2021/10/27 05:27:01;;;;;;;18.03;13.93;;;5.70;99.90;;;6.52;97.67;98906.84;5212944;28;20531;-68
2021/10/27 05:29:34;;;;;;;17.03;13.20;;;5.70;99.90;;;6.39;98.84;98909.06;5201104;28;20296;-61
2021/10/27 05:32:09;;;;;;;17.07;14.30;;;5.60;99.90;;;6.40;99.14;98906.66;5210149;28;20205;-60
2021/10/27 05:34:43;;;;;;;15.07;13.50;;;5.70;99.90;;;6.49;99.69;98907.47;5194540;28;20552;-60
2021/10/27 05:37:16;;;;;;;14.57;12.90;;;5.80;99.90;;;6.54;98.80;98912.97;5201036;28;20217;-63
2021/10/27 05:39:49;;;;;;;26.83;13.63;;;5.80;99.90;;;6.51;98.51;98917.78;5207595;28;20206;-62
2021/10/27 05:42:27;;;;;;;16.83;15.13;;;5.80;99.90;;;6.46;99.20;98903.78;5200928;28;20202;-59
2021/10/27 05:45:04;;;;;;;15.93;14.43;;;5.70;99.90;;;6.47;100.00;98903.03;5206374;28;20567;-60
2021/10/27 05:47:42;;;;;;;14.37;13.03;;;5.70;99.90;;;6.47;100.00;98906.47;5201942;28;20308;-59
2021/10/27 05:50:29;;;;;;;23.30;14.63;;;5.80;99.90;;;6.55;100.00;98899.50;5201867;28;20202;-64
2021/10/27 05:55:53;;;;;;;14.07;12.67;;;5.60;99.90;;;6.42;99.42;98915.31;5197532;28;20228;-60
2021/10/27 05:58:27;;;;;;;15.90;14.20;;;5.60;99.90;;;6.42;99.36;98914.44;5206330;28;20225;-62
2021/10/27 06:01:00;;;;;;;25.30;15.43;;;5.70;99.90;;;6.46;100.00;98916.47;5203719;28;20561;-65
2021/10/27 06:03:34;;;;;;;16.67;14.90;;;5.70;99.90;;;6.50;100.00;98924.53;5222163;28;20236;-60
2021/10/27 06:06:07;;;;;;;15.33;13.83;;;5.80;99.90;;;6.65;100.00;98914.84;5223431;28;20305;-67
2021/10/27 06:08:40;;;;;;;25.77;16.57;;;5.90;99.90;;;6.67;100.00;98920.06;5206428;28;20233;-63
2021/10/27 06:11:14;;;;;;;18.87;13.67;;;6.00;99.90;;;6.65;100.00;98929.19;5211612;28;20259;-61
2021/10/27 06:13:48;;;;;;;21.90;15.03;;;5.90;99.90;;;6.58;100.00;98921.75;5216155;28;20202;-62
2021/10/27 06:16:21;;;;;;;16.70;14.90;;;5.90;99.90;;;6.65;100.00;98919.91;5199709;28;20220;-64
2021/10/27 06:18:54;;;;;;;30.87;15.63;;;5.90;99.90;;;6.65;100.00;98929.19;5209607;28;20534;-61
2021/10/27 06:21:28;;;;;;;18.47;14.40;;;5.90;99.90;;;6.65;100.00;98930.06;5211731;28;20201;-64
2021/10/27 06:24:02;;;;;;;28.30;16.13;;;6.00;99.90;;;6.65;100.00;98932.63;5196894;28;20673;-63
2021/10/27 06:26:35;;;;;;;16.30;14.43;;;6.00;99.90;;;6.70;100.00;98939.00;5209396;28;20208;-64
2021/10/27 06:29:14;;;;;;;18.07;14.73;;;6.00;99.90;;;6.77;100.00;98938.78;5207458;28;20233;-62
2021/10/27 06:31:50;;;;;;;16.67;14.50;;;6.10;99.90;;;6.78;100.00;98942.22;5209301;28;20198;-63
2021/10/27 06:34:31;;;;;;;14.77;13.27;;;6.10;99.90;;;6.81;100.00;98936.50;5207787;28;20194;-62
2021/10/27 06:37:13;;;;;;;16.10;14.40;;;6.10;99.90;;;6.79;99.43;98943.13;5209588;28;20214;-59
2021/10/27 06:48:20;;;;;;;17.43;14.53;;;5.90;99.90;;;6.61;98.74;98943.28;5200784;28;20232;-60
2021/10/27 06:51:13;;;;;;;15.60;14.10;;;5.80;99.90;;;6.86;98.31;98945.44;5205789;28;20208;-60
2021/10/27 06:53:46;;;;;;;17.63;15.00;;;6.00;99.90;;;6.90;98.35;98942.44;5202851;28;20202;-59
2021/10/27 06:56:21;;;;;;;18.83;14.43;;;6.00;99.90;;;6.82;98.51;98957.00;5202704;28;20594;-62
2021/10/27 06:59:00;;;;;;;17.87;14.97;;;6.10;99.90;;;6.86;100.00;98955.59;5210190;28;20229;-61
2021/10/27 07:01:54;;;;;;;15.63;13.97;;;6.20;99.90;;;6.91;99.19;98950.19;5200636;28;20709;-59
2021/10/27 07:04:37;;;;;;;21.53;14.23;;;6.20;99.90;;;6.90;99.17;98956.03;5207998;28;20739;-63
2021/10/27 07:15:38;;;;;;;16.10;13.20;;;6.10;99.90;;;7.06;96.75;98960.78;5205174;28;20216;-62
2021/10/27 07:18:13;;;;;;;13.47;12.17;;;6.30;99.90;;;7.13;94.45;98965.69;5207495;28;20719;-59
2021/10/27 07:20:46;;;;;;;14.20;12.90;;;6.20;99.90;;;7.09;96.16;98962.72;5208238;28;20540;-62
2021/10/27 07:23:19;;;;;;;14.83;11.73;;;6.30;99.90;;;7.03;94.49;98970.69;5204424;28;20628;-58
2021/10/27 07:25:57;;;;;;;13.17;11.87;;;6.30;99.90;;;7.09;95.49;98976.31;5205331;28;20237;-63
2021/10/27 07:28:31;;;;;;;12.40;11.40;;;6.30;99.90;;;7.20;95.79;98972.19;5204119;28;20221;-62
2021/10/27 07:31:06;;;;;;;12.97;11.67;;;6.40;99.90;;;7.18;95.23;98974.63;5204085;28;20193;-63
2021/10/27 07:33:41;;;;;;;13.70;12.40;;;6.40;99.90;;;7.23;95.13;98975.88;5201896;28;20229;-63
2021/10/27 07:36:27;;;;;;;13.00;11.80;;;6.40;99.90;;;7.25;94.76;98973.50;5204723;28;20220;-60
2021/10/27 07:41:51;;;;;;;11.83;10.83;;;6.30;99.90;;;7.20;94.70;98977.28;5198238;28;20205;-60
2021/10/27 07:44:26;;;;;;;13.53;12.43;;;6.30;99.90;;;7.34;94.74;98975.94;5202800;28;20204;-62
2021/10/27 07:46:59;;;;;;;15.97;14.33;;;6.50;99.90;;;7.49;94.75;98976.38;5198128;28;20200;-62
2021/10/27 07:49:33;;;;;;;38.40;29.23;;;6.60;99.90;;;7.42;93.88;98977.50;5215374;28;20296;-59
2021/10/27 07:52:08;;;;;;;160.30;74.43;;;6.50;99.90;;;7.54;94.45;98973.47;5205269;28;20287;-58
2021/10/27 07:54:41;;;;;;;18.00;16.00;;;6.70;99.90;;;7.64;94.42;98977.69;5215744;28;20901;-60
2021/10/27 07:57:15;;;;;;;15.57;13.97;;;6.80;99.90;;;7.80;94.11;98979.94;5203751;28;20593;-60
2021/10/27 07:59:48;;;;;;;12.97;11.87;;;6.90;99.90;;;7.83;92.75;98977.63;5219270;28;20227;-63
2021/10/27 08:02:22;;;;;;;12.87;11.60;;;7.00;99.90;;;7.93;92.10;98974.25;5201100;28;20320;-67
2021/10/27 08:04:56;;;;;;;12.43;11.23;;;7.10;99.90;;;7.95;92.56;98977.78;5202399;28;20202;-59
2021/10/27 08:07:29;;;;;;;13.57;12.37;;;7.10;99.90;;;8.06;91.20;98987.25;5207189;28;20232;-58
2021/10/27 08:10:02;;;;;;;12.60;11.40;;;7.20;99.90;;;7.87;91.24;98979.72;5207937;28;20202;-63
2021/10/27 08:12:35;;;;;;;12.87;11.77;;;7.00;99.90;;;8.02;92.17;98981.00;5209117;28;20202;-61
2021/10/27 08:15:09;;;;;;;12.47;11.03;;;7.20;99.90;;;8.12;91.84;98978.44;5204821;28;20212;-62
2021/10/27 08:17:43;;;;;;;12.70;11.70;;;7.20;99.90;;;8.33;91.51;98975.97;5204777;28;20248;-64
2021/10/27 08:20:21;;;;;;;11.83;10.87;;;7.40;99.90;;;8.40;91.31;98973.19;5199619;28;20284;-64
2021/10/27 08:22:57;;;;;;;11.77;10.77;;;7.50;99.90;;;8.68;89.15;98976.34;5200332;28;20197;-61
2021/10/27 08:25:34;;;;;;;12.03;11.03;;;7.70;99.90;;;8.69;88.83;98984.88;5202537;28;20729;-61
2021/10/27 08:28:11;;;;;;;12.47;11.17;;;7.80;99.90;;;8.56;89.54;98978.78;5199097;28;20704;-63
2021/10/27 08:30:51;;;;;;;12.87;11.77;;;7.70;99.90;;;8.72;90.01;98974.94;5207971;28;20585;-62
2021/10/27 08:33:36;;;;;;;12.57;11.37;;;7.80;99.90;;;8.83;90.95;98981.81;5206104;28;20637;-60
2021/10/27 08:36:11;;;;;;;11.33;10.20;;;8.00;99.90;;;9.10;87.49;98975.53;5202002;28;20208;-63
2021/10/27 08:38:45;;;;;;;11.00;10.10;;;8.20;99.90;;;9.17;89.16;98980.34;5201943;28;20232;-60
2021/10/27 08:41:40;;;;;;;11.10;10.20;;;8.30;99.90;;;9.31;89.22;98986.56;5196791;28;20214;-62
2021/10/27 08:44:13;;;;;;;10.37;9.57;;;8.50;99.90;;;9.53;88.99;98975.50;5202805;28;20331;-58
2021/10/27 08:46:47;;;;;;;10.55;9.75;;;8.70;99.90;;;9.83;86.95;98983.00;5206626;28;20202;-63
2021/10/27 08:49:25;;;;;;;10.40;9.63;;;9.00;99.90;;;9.98;87.37;98984.97;5207402;28;20221;-64
2021/10/27 08:52:03;;;;;;;11.10;10.25;;;9.20;99.90;;;10.13;85.63;98970.84;5202504;28;20193;-61
2021/10/27 08:54:36;;;;;;;9.25;8.55;;;9.30;99.90;;;10.30;84.21;98970.50;5210623;28;20235;-61
2021/10/27 08:57:10;;;;;;;9.52;8.75;;;9.40;99.90;;;10.34;84.12;98967.38;5201587;28;20222;-61
2021/10/27 08:59:48;;;;;;;9.23;8.63;;;9.60;99.90;;;10.49;83.74;98967.66;5203446;28;20236;-61
2021/10/27 09:08:20;;;;;;;10.13;9.18;;;10.00;99.90;;;10.89;81.55;98962.06;5170825;28;20315;-60
2021/10/27 09:16:56;;;;;;;10.57;9.68;;;10.50;99.90;;;11.39;79.96;98944.34;5210927;28;20212;-63
2021/10/27 09:37:36;;;;;;;9.82;9.07;;;11.50;99.90;;;12.14;78.00;98932.59;5198287;28;20224;-59
2021/10/27 09:40:37;;;;;;;8.80;8.13;;;11.60;99.90;;;12.26;79.01;98923.94;5196391;28;20221;-61
2021/10/27 10:04:15;;;;;;;8.70;8.00;;;12.80;99.90;;;13.34;76.40;98904.56;5209240;28;20573;-61
2021/10/27 10:06:52;;;;;;;8.20;7.43;;;12.80;99.90;;;13.55;74.75;98898.97;5211706;28;20300;-70
2021/10/27 10:09:28;;;;;;;8.73;8.13;;;13.00;99.90;;;13.62;75.28;98891.75;5202715;28;20237;-63
2021/10/27 10:12:02;;;;;;;8.02;7.30;;;13.10;99.90;;;13.68;75.37;98891.25;5215036;28;20367;-63
2021/10/27 10:14:36;;;;;;;8.40;7.80;;;13.20;99.90;;;13.97;73.99;98888.75;5209852;28;20644;-63
2021/10/27 10:17:11;;;;;;;8.15;7.40;;;13.30;99.90;;;14.12;72.78;98890.47;5218141;28;20318;-63
2021/10/27 10:19:45;;;;;;;7.90;7.22;;;13.50;99.90;;;14.08;73.38;98885.91;5205527;28;20241;-63
2021/10/27 10:22:30;;;;;;;8.27;7.50;;;13.50;99.90;;;14.08;73.79;98883.34;5209663;28;20286;-64
2021/10/27 10:25:28;;;;;;;7.60;6.95;;;13.60;99.90;;;14.15;73.99;98878.66;5210708;28;20201;-63
2021/10/27 10:28:18;;;;;;;7.38;6.68;;;13.60;99.90;;;14.23;73.32;98876.56;5200582;28;20218;-63
2021/10/27 10:30:54;;;;;;;10.40;6.50;;;13.70;99.90;;;14.40;73.18;98873.28;5203509;28;20193;-65
2021/10/27 10:33:44;;;;;;;6.63;6.03;;;13.90;99.90;;;14.52;72.69;98861.97;5198916;28;20567;-61
2021/10/27 10:36:31;;;;;;;6.38;5.88;;;14.00;99.90;;;14.81;69.91;98864.50;5211131;28;20205;-66
2021/10/27 10:39:26;;;;;;;6.07;5.57;;;14.20;99.90;;;14.92;69.94;98864.25;5202443;28;20245;-66
2021/10/27 10:45:26;;;;;;;5.00;4.60;;;14.60;99.90;;;15.05;66.94;98848.66;5205626;28;20296;-61
2021/10/27 11:03:34;;;;;;;3.95;3.65;;;15.00;99.90;;;15.64;65.55;98822.66;5223383;28;20208;-61
2021/10/27 11:23:47;;;;;;;3.50;3.20;;;15.20;99.90;;;15.93;62.39;98805.28;5221627;28;20605;-59
2021/10/27 11:38:16;;;;;;;3.78;3.47;;;15.30;99.90;;;16.16;61.48;98781.53;5222681;28;20224;-60
2021/10/27 11:40:55;;;;;;;5.28;3.60;;;15.30;99.90;;;16.09;61.67;98779.47;5222883;28;20229;-58
2021/10/27 11:43:33;;;;;;;3.88;3.58;;;15.30;99.90;;;16.13;61.95;98770.19;5220866;28;20213;-61
2021/10/27 11:46:11;;;;;;;4.72;3.45;;;15.30;99.90;;;16.12;61.89;98773.59;5224499;28;20193;-61
2021/10/27 11:48:55;;;;;;;5.63;3.80;;;15.30;99.90;;;16.09;61.35;98764.00;5222009;28;20676;-60
2021/10/27 11:51:28;;;;;;;3.85;3.53;;;15.40;99.90;;;16.08;61.84;98767.41;5225111;28;20220;-60
2021/10/27 11:54:11;;;;;;;4.13;3.50;;;15.40;99.90;;;16.12;61.97;98760.69;5224518;28;20197;-61
2021/10/27 11:56:44;;;;;;;17.50;12.10;;;15.40;99.90;;;16.36;60.71;98758.41;5219567;28;20292;-62
2021/10/27 11:59:18;;;;;;;11.75;9.35;;;15.60;99.90;;;16.34;60.40;98749.72;5222675;28;20308;-62
2021/10/27 12:01:53;;;;;;;6.60;5.90;;;15.60;99.90;;;16.39;59.80;98749.13;5223319;28;20244;-62
2021/10/27 12:04:34;;;;;;;8.45;7.47;;;15.70;99.90;;;16.27;60.48;98747.66;5215052;28;20204;-60
2021/10/27 12:07:16;;;;;;;4.13;3.83;;;15.50;99.90;;;16.31;60.35;98744.41;5222405;28;20528;-61
2021/10/27 12:10:04;;;;;;;4.50;4.10;;;15.50;99.90;;;16.12;61.07;98742.63;5223455;28;20686;-59
2021/10/27 12:12:50;;;;;;;4.10;3.80;;;15.50;99.90;;;16.03;61.51;98737.03;5222788;28;20219;-61
2021/10/27 12:15:46;;;;;;;4.65;4.15;;;15.30;99.90;;;16.12;60.96;98733.19;5220005;28;20283;-59
2021/10/27 12:18:21;;;;;;;4.25;3.88;;;15.30;99.90;;;16.08;61.10;98731.28;5220471;28;20217;-60
2021/10/27 12:20:56;;;;;;;4.43;4.03;;;15.40;99.90;;;16.13;59.80;98713.44;5221543;28;20221;-61
2021/10/27 12:23:30;;;;;;;4.78;4.38;;;15.40;99.90;;;16.23;59.44;98719.94;5223964;28;20217;-61
2021/10/27 12:26:10;;;;;;;3.83;3.53;;;15.40;99.90;;;16.13;60.83;98709.16;5222341;28;20296;-61
2021/10/27 12:28:44;;;;;;;5.35;4.63;;;15.40;99.90;;;16.12;60.98;98712.56;5223755;28;20197;-59
2021/10/27 12:31:20;;;;;;;4.72;4.25;;;15.30;99.90;;;16.25;60.38;98705.41;5223464;28;20217;-60
2021/10/27 12:33:53;;;;;;;4.43;4.03;;;15.40;99.90;;;16.17;60.45;98702.47;5221886;28;20231;-61
2021/10/27 12:36:29;;;;;;;4.22;3.60;;;15.40;99.90;;;16.18;60.81;98705.13;5222832;28;20197;-60
2021/10/27 12:39:12;;;;;;;4.75;3.97;;;15.40;99.90;;;16.56;58.86;98700.91;5221973;28;20347;-61
2021/10/27 12:42:00;;;;;;;4.47;4.13;;;15.60;99.90;;;16.55;58.80;98699.13;5222403;28;20319;-61
2021/10/27 12:44:35;;;;;;;4.93;4.53;;;15.70;99.90;;;16.47;58.53;98699.59;5221708;28;20303;-61
2021/10/27 12:47:13;;;;;;;5.30;4.85;;;15.70;99.90;;;16.32;59.54;98689.44;5222514;28;20560;-61
2021/10/27 12:49:48;;;;;;;4.20;3.80;;;15.60;99.90;;;16.27;59.73;98693.47;5218464;28;20201;-61
2021/10/27 12:52:30;;;;;;;4.60;4.20;;;15.50;99.90;;;16.31;60.43;98688.56;5223483;28;20219;-60
2021/10/27 12:55:17;;;;;;;4.97;4.32;;;15.50;99.90;;;16.28;60.17;98685.84;5222984;28;20300;-60
2021/10/27 12:57:58;;;;;;;5.40;4.90;;;15.50;99.90;;;16.54;58.21;98691.31;5223285;28;20199;-61
2021/10/27 13:00:57;;;;;;;5.68;5.28;;;15.70;99.90;;;16.57;58.93;98676.88;5222321;28;20205;-61